Time;durP1;ratioP1;P1;durP2;ratioP2;P2;SDS_P1;SDS_P2;PMS_P1;PMS_P2;Temp;Humidity;BMP_temperature;BMP_pressure;BME280_temperature;BME280_humidity;BME280_pressure;Samples;Min_cycle;Max_cycle;Signal;HPM_P1;HPM_P2
2022/04/22 00:00:00;;;;;;;;;;;;;;;;;;344473;28;874;-49
2022/04/22 00:00:10;;;;;;;;;;;;;;;;;;344743;28;826;-55
2022/04/22 00:00:22;;;;;;;;;;;;;;;;;;344603;28;956;-48
2022/04/22 00:00:32;;;;;;;;;;;;;;;;;;344798;28;968;-56
2022/04/22 00:00:43;;;;;;;;;;;;;;;;;;344599;28;826;-55
2022/04/22 00:00:53;;;;;;;;;;;;;;;;;;344563;28;961;-52
2022/04/22 00:01:03;;;;;;;;;;;;;;;;;;344604;28;877;-54
2022/04/22 00:01:14;;;;;;;;;;;;;;;;;;344339;28;1085;-49
2022/04/22 00:01:24;;;;;;;;;;;;;;;;;;344232;28;1160;-49
2022/04/22 00:01:35;;;;;;;;;;;;;;;;;;344806;28;822;-50
2022/04/22 00:01:46;;;;;;;;;;;;;;;;;;344605;28;1057;-54
2022/04/22 00:01:56;;;;;;;;;;;;;;;;;;344465;28;813;-52
2022/04/22 00:02:06;;;;;;;;;;;;;;;;;;344590;28;925;-50
2022/04/22 00:02:16;;;;;;;;;;;;;;;;;;344832;28;806;-53
2022/04/22 00:02:27;;;;;;;;;;;;;;;;;;344296;28;823;-51
2022/04/22 00:02:39;;;;;;;;;;;;;;;;;;344561;28;978;-53
2022/04/22 00:02:49;;;;;;;;;;;;;;;;;;344558;28;905;-50
2022/04/22 00:02:59;;;;;;;;;;;;;;;;;;344693;28;888;-49
2022/04/22 00:03:10;;;;;;;;;;;;;;;;;;344541;28;944;-50
2022/04/22 00:03:20;;;;;;;;;;;;;;;;;;344728;28;882;-49
2022/04/22 00:03:30;;;;;;;;;;;;;;;;;;344389;28;818;-48
2022/04/22 00:03:40;;;;;;;;;;;;;;;;;;344716;28;1603;-49
2022/04/22 00:03:51;;;;;;;;;;;;;;;;;;344287;28;918;-54
2022/04/22 00:04:01;;;;;;;;;;;;;;;;;;344673;28;917;-55
2022/04/22 00:04:11;;;;;;;;;;;;;;;;;;344756;28;759;-53
2022/04/22 00:04:22;;;;;;;;;;;;;;;;;;344248;28;961;-50
2022/04/22 00:04:32;;;;;;;;;;;;;;;;;;344739;28;941;-52
2022/04/22 00:04:42;;;;;;;;;;;;;;;;;;344659;28;909;-54
2022/04/22 00:04:53;;;;;;;;;;;;;;;;;;344585;28;954;-54
2022/04/22 00:05:03;;;;;;;;;;;;;;;;;;344380;28;964;-54
2022/04/22 00:05:13;;;;;;;;;;;;;;;;;;344721;28;888;-49
2022/04/22 00:05:24;;;;;;;;;;;;;;;;;;344429;28;882;-53
2022/04/22 00:05:34;;;;;;;;;;;;;;;;;;344638;28;1232;-53
2022/04/22 00:05:45;;;;;;;;;;;;;;;;;;344668;28;1008;-53
2022/04/22 00:05:55;;;;;;;;;;;;;;;;;;344571;28;890;-52
2022/04/22 00:06:05;;;;;;;;;;;;;;;;;;344543;28;948;-49
2022/04/22 00:06:16;;;;;;;;;;;;;;;;;;344739;28;960;-50
2022/04/22 00:06:27;;;;;;;;;;;;;;;;;;344394;28;782;-53
2022/04/22 00:06:37;;;;;;;;;;;;;;;;;;344632;28;1057;-50
2022/04/22 00:06:47;;;;;;;;;;;;;;;;;;344454;28;1194;-55
2022/04/22 00:06:58;;;;;;;;;;;;;;;;;;344465;28;936;-51
2022/04/22 00:07:08;;;;;;;;;;;;;;;;;;344542;28;1044;-50
2022/04/22 00:07:18;;;;;;;;;;;;;;;;;;344514;28;962;-51
2022/04/22 00:07:28;;;;;;;;;;;;;;;;;;344349;28;909;-53
2022/04/22 00:07:39;;;;;;;;;;;;;;;;;;344403;28;1020;-50
2022/04/22 00:07:49;;;;;;;;;;;;;;;;;;344235;28;1155;-48
2022/04/22 00:08:00;;;;;;;;;;;;;;;;;;344496;28;944;-51
2022/04/22 00:08:10;;;;;;;;;;;;;;;;;;344505;28;921;-49
2022/04/22 00:08:22;;;;;;;;;;;;;;;;;;344569;28;1117;-48
2022/04/22 00:08:32;;;;;;;;;;;;;;;;;;344414;28;822;-55
2022/04/22 00:08:42;;;;;;;;;;;;;;;;;;344412;28;984;-53
2022/04/22 00:08:53;;;;;;;;;;;;;;;;;;344716;28;830;-55
2022/04/22 00:09:03;;;;;;;;;;;;;;;;;;344368;28;1125;-49
2022/04/22 00:09:13;;;;;;;;;;;;;;;;;;344529;28;815;-52
2022/04/22 00:09:24;;;;;;;;;;;;;;;;;;344449;28;822;-55
2022/04/22 00:09:34;;;;;;;;;;;;;;;;;;344648;28;1095;-54
2022/04/22 00:09:44;;;;;;;;;;;;;;;;;;344681;28;838;-53
2022/04/22 00:09:57;;;;;;;;;;;;;;;;;;344599;28;870;-51
2022/04/22 00:10:10;;;;;;;;;;;;;;;;;;341882;28;913;-52
2022/04/22 00:10:20;;;;;;;;;;;;;;;;;;342064;28;912;-51
2022/04/22 00:10:30;;;;;;;;;;;;;;;;;;341805;28;823;-53
2022/04/22 00:11:28;;;;;;;;;;;;;;;;;;341960;28;998;-53
2022/04/22 00:11:29;;;;;;;;;;;;;;;;;;342086;28;858;-49
2022/04/22 00:11:40;;;;;;;;;;;;;;;;;;341926;28;999;-48
2022/04/22 00:11:50;;;;;;;;;;;;;;;;;;341788;28;929;-53
2022/04/22 00:12:00;;;;;;;;;;;;;;;;;;341835;28;1020;-48
2022/04/22 00:12:11;;;;;;;;;;;;;;;;;;341987;28;910;-52
2022/04/22 00:12:21;;;;;;;;;;;;;;;;;;342022;28;952;-56
2022/04/22 00:12:31;;;;;;;;;;;;;;;;;;341711;28;1188;-51
2022/04/22 00:12:43;;;;;;;;;;;;;;;;;;341888;28;767;-54
2022/04/22 00:12:54;;;;;;;;;;;;;;;;;;341966;28;880;-54
2022/04/22 00:13:04;;;;;;;;;;;;;;;;;;341823;28;1181;-49
2022/04/22 00:13:15;;;;;;;;;;;;;;;;;;342289;28;1106;-54
2022/04/22 00:13:25;;;;;;;;;;;;;;;;;;341945;28;885;-51
2022/04/22 00:13:35;;;;;;;;;;;;;;;;;;342107;28;926;-50
2022/04/22 00:13:46;;;;;;;;;;;;;;;;;;342159;28;886;-51
2022/04/22 00:14:02;;;;;;;;;;;;;;;;;;342283;28;854;-55
2022/04/22 00:14:13;;;;;;;;;;;;;;;;;;342146;28;1074;-54
2022/04/22 00:14:24;;;;;;;;;;;;;;;;;;341928;28;886;-54
2022/04/22 00:14:34;;;;;;;;;;;;;;;;;;342271;28;815;-53
2022/04/22 00:14:44;;;;;;;;;;;;;;;;;;342052;28;990;-46
2022/04/22 00:14:55;;;;;;;;;;;;;;;;;;342269;28;1025;-51
2022/04/22 00:15:06;;;;;;;;;;;;;;;;;;342146;28;980;-51
2022/04/22 00:15:16;;;;;;;;;;;;;;;;;;342214;28;862;-49
2022/04/22 00:15:27;;;;;;;;;;;;;;;;;;341864;28;997;-52
2022/04/22 00:15:37;;;;;;;;;;;;;;;;;;342214;28;1463;-52
2022/04/22 00:15:47;;;;;;;;;;;;;;;;;;342104;28;881;-53
2022/04/22 00:15:57;;;;;;;;;;;;;;;;;;341914;28;1064;-54
2022/04/22 00:16:08;;;;;;;;;;;;;;;;;;341954;28;972;-49
2022/04/22 00:16:18;;;;;;;;;;;;;;;;;;342219;28;1004;-50
2022/04/22 00:16:30;;;;;;;;;;;;;;;;;;341932;28;930;-54
2022/04/22 00:16:40;;;;;;;;;;;;;;;;;;342295;28;897;-52
2022/04/22 00:16:51;;;;;;;;;;;;;;;;;;342208;28;831;-55
2022/04/22 00:17:01;;;;;;;;;;;;;;;;;;342157;28;941;-55
2022/04/22 00:17:11;;;;;;;;;;;;;;;;;;342092;28;1981;-52
2022/04/22 00:17:22;;;;;;;;;;;;;;;;;;342117;28;838;-53
2022/04/22 00:17:32;;;;;;;;;;;;;;;;;;342150;28;870;-53
2022/04/22 00:17:42;;;;;;;;;;;;;;;;;;342098;28;1000;-51
2022/04/22 00:17:53;;;;;;;;;;;;;;;;;;342014;28;1247;-50
2022/04/22 00:18:03;;;;;;;;;;;;;;;;;;342106;28;981;-56
2022/04/22 00:18:14;;;;;;;;;;;;;;;;;;342211;28;981;-54
2022/04/22 00:18:24;;;;;;;;;;;;;;;;;;341893;28;806;-55
2022/04/22 00:18:35;;;;;;;;;;;;;;;;;;342291;28;980;-56
2022/04/22 00:18:45;;;;;;;;;;;;;;;;;;342140;28;945;-52
2022/04/22 00:18:55;;;;;;;;;;;;;;;;;;342109;28;1454;-51
2022/04/22 00:19:06;;;;;;;;;;;;;;;;;;342150;28;901;-55
2022/04/22 00:19:17;;;;;;;;;;;;;;;;;;342285;28;815;-53
2022/04/22 00:19:27;;;;;;;;;;;;;;;;;;341794;28;970;-50
2022/04/22 00:19:38;;;;;;;;;;;;;;;;;;342217;28;913;-56
2022/04/22 00:19:48;;;;;;;;;;;;;;;;;;342119;28;918;-55
2022/04/22 00:19:58;;;;;;;;;;;;;;;;;;342064;28;960;-53
2022/04/22 00:20:10;;;;;;;;;;;;;;;;;;342122;28;784;-54
2022/04/22 00:20:20;;;;;;;;;;;;;;;;;;342208;28;783;-53
2022/04/22 00:20:30;;;;;;;;;;;;;;;;;;341925;28;1415;-55
2022/04/22 00:20:41;;;;;;;;;;;;;;;;;;342226;28;910;-55
2022/04/22 00:20:51;;;;;;;;;;;;;;;;;;342131;28;890;-55
2022/04/22 00:21:01;;;;;;;;;;;;;;;;;;341989;28;802;-47
2022/04/22 00:21:12;;;;;;;;;;;;;;;;;;342170;28;973;-52
2022/04/22 00:21:22;;;;;;;;;;;;;;;;;;341983;28;941;-50
2022/04/22 00:21:33;;;;;;;;;;;;;;;;;;342281;28;953;-55
2022/04/22 00:21:44;;;;;;;;;;;;;;;;;;342078;28;1003;-53
2022/04/22 00:21:54;;;;;;;;;;;;;;;;;;342204;28;953;-54
2022/04/22 00:22:05;;;;;;;;;;;;;;;;;;342021;28;1005;-52
2022/04/22 00:22:15;;;;;;;;;;;;;;;;;;342235;28;839;-55
2022/04/22 00:22:25;;;;;;;;;;;;;;;;;;341877;28;1014;-55
2022/04/22 00:22:36;;;;;;;;;;;;;;;;;;342272;28;1815;-52
2022/04/22 00:22:47;;;;;;;;;;;;;;;;;;342124;28;937;-54
2022/04/22 00:22:57;;;;;;;;;;;;;;;;;;342126;28;996;-52
2022/04/22 00:23:08;;;;;;;;;;;;;;;;;;342033;28;779;-53
2022/04/22 00:23:18;;;;;;;;;;;;;;;;;;342141;28;830;-54
2022/04/22 00:23:28;;;;;;;;;;;;;;;;;;341649;28;996;-49
2022/04/22 00:23:39;;;;;;;;;;;;;;;;;;342250;28;853;-55
2022/04/22 00:23:50;;;;;;;;;;;;;;;;;;342196;28;921;-55
2022/04/22 00:24:00;;;;;;;;;;;;;;;;;;342189;28;949;-52
2022/04/22 00:24:10;;;;;;;;;;;;;;;;;;342068;28;879;-54
2022/04/22 00:24:20;;;;;;;;;;;;;;;;;;342255;28;908;-56
2022/04/22 00:24:31;;;;;;;;;;;;;;;;;;341986;28;937;-53
2022/04/22 00:24:41;;;;;;;;;;;;;;;;;;342112;28;1037;-54
2022/04/22 00:24:53;;;;;;;;;;;;;;;;;;342191;28;862;-51
2022/04/22 00:25:06;;;;;;;;;;;;;;;;;;342141;28;1506;-57
2022/04/22 00:25:16;;;;;;;;;;;;;;;;;;342110;28;966;-53
2022/04/22 00:25:27;;;;;;;;;;;;;;;;;;341909;28;830;-56
2022/04/22 00:25:37;;;;;;;;;;;;;;;;;;342242;28;989;-56
2022/04/22 00:25:47;;;;;;;;;;;;;;;;;;342160;28;1153;-49
2022/04/22 00:25:58;;;;;;;;;;;;;;;;;;342173;28;929;-57
2022/04/22 00:26:08;;;;;;;;;;;;;;;;;;342075;28;862;-58
2022/04/22 00:26:19;;;;;;;;;;;;;;;;;;342173;28;937;-54
2022/04/22 00:26:29;;;;;;;;;;;;;;;;;;341934;28;966;-57
2022/04/22 00:26:40;;;;;;;;;;;;;;;;;;342173;28;1519;-57
2022/04/22 00:26:50;;;;;;;;;;;;;;;;;;341933;28;1036;-57
2022/04/22 00:27:01;;;;;;;;;;;;;;;;;;342148;28;856;-53
2022/04/22 00:27:11;;;;;;;;;;;;;;;;;;341984;28;878;-57
2022/04/22 00:27:21;;;;;;;;;;;;;;;;;;342011;28;870;-56
2022/04/22 00:27:32;;;;;;;;;;;;;;;;;;342072;28;792;-56
2022/04/22 00:27:42;;;;;;;;;;;;;;;;;;342055;28;1163;-57
2022/04/22 00:27:53;;;;;;;;;;;;;;;;;;340551;28;1343;-57
2022/04/22 00:28:03;;;;;;;;;;;;;;;;;;340695;28;953;-57
2022/04/22 00:28:14;;;;;;;;;;;;;;;;;;340717;29;995;-57
2022/04/22 00:28:24;;;;;;;;;;;;;;;;;;340525;29;929;-56
2022/04/22 00:28:34;;;;;;;;;;;;;;;;;;341301;28;941;-50
2022/04/22 00:28:45;;;;;;;;;;;;;;;;;;341921;28;961;-57
2022/04/22 00:28:55;;;;;;;;;;;;;;;;;;342090;28;902;-55
2022/04/22 00:29:05;;;;;;;;;;;;;;;;;;342014;28;799;-54
2022/04/22 00:29:15;;;;;;;;;;;;;;;;;;342088;28;993;-53
2022/04/22 00:29:26;;;;;;;;;;;;;;;;;;341737;28;1186;-54
2022/04/22 00:29:36;;;;;;;;;;;;;;;;;;342098;28;957;-46
2022/04/22 00:29:46;;;;;;;;;;;;;;;;;;342140;28;834;-49
2022/04/22 00:29:57;;;;;;;;;;;;;;;;;;342092;28;946;-52
2022/04/22 00:30:08;;;;;;;;;;;;;;;;;;342053;28;1625;-54
2022/04/22 00:30:19;;;;;;;;;;;;;;;;;;342186;28;866;-52
2022/04/22 00:30:29;;;;;;;;;;;;;;;;;;341918;28;1097;-50
2022/04/22 00:30:39;;;;;;;;;;;;;;;;;;342265;28;906;-54
2022/04/22 00:30:50;;;;;;;;;;;;;;;;;;341945;28;779;-53
2022/04/22 00:31:00;;;;;;;;;;;;;;;;;;342234;28;882;-54
2022/04/22 00:31:11;;;;;;;;;;;;;;;;;;342055;28;956;-53
2022/04/22 00:31:21;;;;;;;;;;;;;;;;;;342021;28;961;-54
2022/04/22 00:31:31;;;;;;;;;;;;;;;;;;342052;28;858;-52
2022/04/22 00:31:42;;;;;;;;;;;;;;;;;;342096;28;902;-54
2022/04/22 00:31:52;;;;;;;;;;;;;;;;;;342257;28;858;-56
2022/04/22 00:32:02;;;;;;;;;;;;;;;;;;342099;28;953;-50
2022/04/22 00:32:13;;;;;;;;;;;;;;;;;;342172;28;979;-53
2022/04/22 00:32:23;;;;;;;;;;;;;;;;;;341881;28;1575;-51
2022/04/22 00:32:34;;;;;;;;;;;;;;;;;;342300;28;605;-54
2022/04/22 00:32:44;;;;;;;;;;;;;;;;;;342066;28;858;-55
2022/04/22 00:32:54;;;;;;;;;;;;;;;;;;342153;28;946;-55
2022/04/22 00:33:06;;;;;;;;;;;;;;;;;;342187;28;879;-54
2022/04/22 00:33:16;;;;;;;;;;;;;;;;;;342237;28;818;-51
2022/04/22 00:33:27;;;;;;;;;;;;;;;;;;341764;28;871;-52
2022/04/22 00:33:38;;;;;;;;;;;;;;;;;;342186;28;918;-51
2022/04/22 00:33:48;;;;;;;;;;;;;;;;;;342111;28;846;-51
2022/04/22 00:33:58;;;;;;;;;;;;;;;;;;341948;28;986;-50
2022/04/22 00:34:09;;;;;;;;;;;;;;;;;;342002;28;937;-49
2022/04/22 00:34:20;;;;;;;;;;;;;;;;;;342189;28;933;-54
2022/04/22 00:34:30;;;;;;;;;;;;;;;;;;341891;28;830;-49
2022/04/22 00:34:41;;;;;;;;;;;;;;;;;;341999;28;984;-48
2022/04/22 00:34:51;;;;;;;;;;;;;;;;;;342082;28;945;-53
2022/04/22 00:35:03;;;;;;;;;;;;;;;;;;342068;28;798;-50
2022/04/22 00:35:13;;;;;;;;;;;;;;;;;;340582;28;1333;-52
2022/04/22 00:35:23;;;;;;;;;;;;;;;;;;341203;28;803;-54
2022/04/22 00:35:34;;;;;;;;;;;;;;;;;;342134;28;878;-50
2022/04/22 00:35:44;;;;;;;;;;;;;;;;;;341918;28;995;-49
2022/04/22 00:35:54;;;;;;;;;;;;;;;;;;342149;28;815;-54
2022/04/22 00:36:05;;;;;;;;;;;;;;;;;;342004;28;905;-52
2022/04/22 00:36:15;;;;;;;;;;;;;;;;;;342005;28;1008;-47
2022/04/22 00:36:25;;;;;;;;;;;;;;;;;;341680;28;995;-55
2022/04/22 00:36:36;;;;;;;;;;;;;;;;;;342092;28;676;-56
2022/04/22 00:36:46;;;;;;;;;;;;;;;;;;342059;28;990;-58
2022/04/22 00:36:57;;;;;;;;;;;;;;;;;;342059;28;981;-55
2022/04/22 00:37:07;;;;;;;;;;;;;;;;;;341997;28;1241;-56
2022/04/22 00:37:17;;;;;;;;;;;;;;;;;;342017;28;1987;-55
2022/04/22 00:37:28;;;;;;;;;;;;;;;;;;341694;28;996;-52
2022/04/22 00:37:40;;;;;;;;;;;;;;;;;;342147;28;886;-53
2022/04/22 00:37:50;;;;;;;;;;;;;;;;;;341967;28;894;-55
2022/04/22 00:38:00;;;;;;;;;;;;;;;;;;342065;28;992;-53
2022/04/22 00:38:10;;;;;;;;;;;;;;;;;;341497;28;894;-54
2022/04/22 00:38:21;;;;;;;;;;;;;;;;;;342164;28;968;-55
2022/04/22 00:38:31;;;;;;;;;;;;;;;;;;341985;28;858;-53
2022/04/22 00:38:41;;;;;;;;;;;;;;;;;;341954;28;1088;-52
2022/04/22 00:38:52;;;;;;;;;;;;;;;;;;342304;28;831;-57
2022/04/22 00:39:02;;;;;;;;;;;;;;;;;;342106;28;1032;-57
2022/04/22 00:39:13;;;;;;;;;;;;;;;;;;342071;28;1031;-53
2022/04/22 00:39:23;;;;;;;;;;;;;;;;;;341897;28;965;-55
2022/04/22 00:39:33;;;;;;;;;;;;;;;;;;342165;28;945;-56
2022/04/22 00:39:43;;;;;;;;;;;;;;;;;;342172;28;866;-56
2022/04/22 00:39:54;;;;;;;;;;;;;;;;;;342136;28;1067;-51
2022/04/22 00:40:04;;;;;;;;;;;;;;;;;;342118;28;826;-53
2022/04/22 00:40:15;;;;;;;;;;;;;;;;;;342142;28;765;-55
2022/04/22 00:40:25;;;;;;;;;;;;;;;;;;341679;28;992;-55
2022/04/22 00:40:36;;;;;;;;;;;;;;;;;;342193;28;868;-55
2022/04/22 00:40:46;;;;;;;;;;;;;;;;;;342074;28;886;-56
2022/04/22 00:40:57;;;;;;;;;;;;;;;;;;342082;28;1137;-54
2022/04/22 00:41:08;;;;;;;;;;;;;;;;;;342149;28;858;-50
2022/04/22 00:41:18;;;;;;;;;;;;;;;;;;342088;28;890;-52
2022/04/22 00:41:29;;;;;;;;;;;;;;;;;;341894;28;941;-53
2022/04/22 00:41:40;;;;;;;;;;;;;;;;;;342119;28;919;-55
2022/04/22 00:41:50;;;;;;;;;;;;;;;;;;341980;28;961;-49
2022/04/22 00:42:10;;;;;;;;;;;;;;;;;;342116;28;929;-49
2022/04/22 00:42:20;;;;;;;;;;;;;;;;;;342253;28;815;-51
2022/04/22 00:42:31;;;;;;;;;;;;;;;;;;341911;28;838;-54
2022/04/22 00:42:41;;;;;;;;;;;;;;;;;;342045;28;1076;-54
2022/04/22 00:42:52;;;;;;;;;;;;;;;;;;342143;28;886;-52
2022/04/22 00:43:15;;;;;;;;;;;;;;;;;;342193;28;973;-52
2022/04/22 00:43:26;;;;;;;;;;;;;;;;;;341707;28;878;-51
2022/04/22 00:43:44;;;;;;;;;;;;;;;;;;342173;28;1911;-49
2022/04/22 00:43:55;;;;;;;;;;;;;;;;;;342099;28;1111;-48
2022/04/22 00:44:05;;;;;;;;;;;;;;;;;;342130;28;926;-52
2022/04/22 00:44:15;;;;;;;;;;;;;;;;;;342152;28;897;-49
2022/04/22 00:44:26;;;;;;;;;;;;;;;;;;341820;28;989;-52
2022/04/22 00:44:37;;;;;;;;;;;;;;;;;;342226;28;993;-54
2022/04/22 00:44:47;;;;;;;;;;;;;;;;;;342032;28;839;-49
2022/04/22 00:44:58;;;;;;;;;;;;;;;;;;342214;28;834;-53
2022/04/22 00:45:09;;;;;;;;;;;;;;;;;;342029;28;1184;-55
2022/04/22 00:45:20;;;;;;;;;;;;;;;;;;342182;28;830;-55
2022/04/22 00:45:31;;;;;;;;;;;;;;;;;;341793;28;885;-55
2022/04/22 00:45:41;;;;;;;;;;;;;;;;;;341813;28;956;-53
2022/04/22 00:45:53;;;;;;;;;;;;;;;;;;342200;28;850;-52
2022/04/22 00:46:03;;;;;;;;;;;;;;;;;;342054;28;1676;-54
2022/04/22 00:46:14;;;;;;;;;;;;;;;;;;341982;28;1044;-53
2022/04/22 00:46:24;;;;;;;;;;;;;;;;;;341806;28;906;-52
2022/04/22 00:46:34;;;;;;;;;;;;;;;;;;342172;28;938;-51
2022/04/22 00:46:45;;;;;;;;;;;;;;;;;;342042;28;1051;-51
2022/04/22 00:46:55;;;;;;;;;;;;;;;;;;342166;28;799;-51
2022/04/22 00:47:05;;;;;;;;;;;;;;;;;;342145;28;997;-54
2022/04/22 00:47:16;;;;;;;;;;;;;;;;;;342119;28;949;-55
2022/04/22 00:47:27;;;;;;;;;;;;;;;;;;341712;28;1224;-55
2022/04/22 00:47:37;;;;;;;;;;;;;;;;;;342120;28;778;-54
2022/04/22 00:47:48;;;;;;;;;;;;;;;;;;342166;28;822;-55
2022/04/22 00:47:58;;;;;;;;;;;;;;;;;;342108;28;1132;-54
2022/04/22 00:48:08;;;;;;;;;;;;;;;;;;342094;28;882;-53
2022/04/22 00:48:20;;;;;;;;;;;;;;;;;;342175;28;855;-55
2022/04/22 00:48:30;;;;;;;;;;;;;;;;;;341801;28;978;-54
2022/04/22 00:48:40;;;;;;;;;;;;;;;;;;342181;28;988;-49
2022/04/22 00:48:50;;;;;;;;;;;;;;;;;;342037;28;846;-57
2022/04/22 00:49:01;;;;;;;;;;;;;;;;;;342243;28;906;-54
2022/04/22 00:49:11;;;;;;;;;;;;;;;;;;342006;28;1055;-52
2022/04/22 00:49:21;;;;;;;;;;;;;;;;;;342205;28;854;-53
2022/04/22 00:49:32;;;;;;;;;;;;;;;;;;342000;28;878;-49
2022/04/22 00:49:42;;;;;;;;;;;;;;;;;;342048;28;1002;-52
2022/04/22 00:49:52;;;;;;;;;;;;;;;;;;342161;28;886;-53
2022/04/22 00:50:03;;;;;;;;;;;;;;;;;;342073;28;957;-48
2022/04/22 00:50:13;;;;;;;;;;;;;;;;;;342025;28;1619;-49
2022/04/22 00:50:23;;;;;;;;;;;;;;;;;;341849;28;850;-49
2022/04/22 00:50:34;;;;;;;;;;;;;;;;;;342209;28;929;-51
2022/04/22 00:50:44;;;;;;;;;;;;;;;;;;342108;28;985;-53
2022/04/22 00:50:55;;;;;;;;;;;;;;;;;;341983;28;905;-50
2022/04/22 00:51:06;;;;;;;;;;;;;;;;;;342187;28;850;-48
2022/04/22 00:51:18;;;;;;;;;;;;;;;;;;342049;28;874;-51
2022/04/22 00:51:29;;;;;;;;;;;;;;;;;;341633;28;1252;-48
2022/04/22 00:51:39;;;;;;;;;;;;;;;;;;342244;28;870;-51
2022/04/22 00:51:49;;;;;;;;;;;;;;;;;;342123;28;894;-51
2022/04/22 00:52:01;;;;;;;;;;;;;;;;;;342012;28;1157;-46
2022/04/22 00:52:12;;;;;;;;;;;;;;;;;;342209;28;992;-50
2022/04/22 00:52:23;;;;;;;;;;;;;;;;;;341901;28;934;-53
2022/04/22 00:52:33;;;;;;;;;;;;;;;;;;342160;28;896;-49
2022/04/22 00:52:43;;;;;;;;;;;;;;;;;;341941;28;756;-51
2022/04/22 00:52:54;;;;;;;;;;;;;;;;;;342086;28;929;-53
2022/04/22 00:53:05;;;;;;;;;;;;;;;;;;342022;28;851;-52
2022/04/22 00:53:15;;;;;;;;;;;;;;;;;;342043;28;981;-50
2022/04/22 00:53:26;;;;;;;;;;;;;;;;;;341801;28;902;-50
2022/04/22 00:53:37;;;;;;;;;;;;;;;;;;342244;28;874;-53
2022/04/22 00:53:49;;;;;;;;;;;;;;;;;;341913;28;1008;-49
2022/04/22 00:54:01;;;;;;;;;;;;;;;;;;342191;28;895;-52
2022/04/22 00:54:12;;;;;;;;;;;;;;;;;;342141;28;1060;-52
2022/04/22 00:54:22;;;;;;;;;;;;;;;;;;341819;28;1030;-52
2022/04/22 00:54:33;;;;;;;;;;;;;;;;;;342295;28;799;-53
2022/04/22 00:54:43;;;;;;;;;;;;;;;;;;341952;28;858;-52
2022/04/22 00:54:54;;;;;;;;;;;;;;;;;;342081;28;1056;-53
2022/04/22 00:55:04;;;;;;;;;;;;;;;;;;342172;28;984;-56
2022/04/22 00:55:15;;;;;;;;;;;;;;;;;;342019;28;851;-56
2022/04/22 00:55:26;;;;;;;;;;;;;;;;;;341846;28;993;-52
2022/04/22 00:55:37;;;;;;;;;;;;;;;;;;341996;28;1156;-55
2022/04/22 00:55:48;;;;;;;;;;;;;;;;;;342121;28;804;-55
2022/04/22 00:55:58;;;;;;;;;;;;;;;;;;342154;28;870;-56
2022/04/22 00:56:10;;;;;;;;;;;;;;;;;;342063;28;1000;-54
2022/04/22 00:56:21;;;;;;;;;;;;;;;;;;342030;28;782;-56
2022/04/22 00:56:31;;;;;;;;;;;;;;;;;;341988;28;846;-49
2022/04/22 00:56:42;;;;;;;;;;;;;;;;;;341998;28;923;-56
2022/04/22 00:56:52;;;;;;;;;;;;;;;;;;342228;28;780;-55
2022/04/22 00:57:03;;;;;;;;;;;;;;;;;;342168;28;827;-56
2022/04/22 00:57:13;;;;;;;;;;;;;;;;;;342047;28;1968;-53
2022/04/22 00:57:24;;;;;;;;;;;;;;;;;;341809;28;1012;-55
2022/04/22 00:57:34;;;;;;;;;;;;;;;;;;342104;28;950;-57
2022/04/22 00:57:45;;;;;;;;;;;;;;;;;;342126;28;780;-56
2022/04/22 00:57:56;;;;;;;;;;;;;;;;;;342012;28;985;-54
2022/04/22 00:58:06;;;;;;;;;;;;;;;;;;342022;28;1011;-56
2022/04/22 00:58:17;;;;;;;;;;;;;;;;;;342129;28;915;-56
2022/04/22 00:58:27;;;;;;;;;;;;;;;;;;341828;28;1004;-52
2022/04/22 00:58:39;;;;;;;;;;;;;;;;;;342212;28;942;-50
2022/04/22 00:58:50;;;;;;;;;;;;;;;;;;342051;28;890;-52
2022/04/22 00:59:02;;;;;;;;;;;;;;;;;;342040;28;1058;-57
2022/04/22 00:59:12;;;;;;;;;;;;;;;;;;342205;28;942;-56
2022/04/22 00:59:23;;;;;;;;;;;;;;;;;;341824;28;878;-57
2022/04/22 00:59:35;;;;;;;;;;;;;;;;;;342142;28;890;-55
2022/04/22 00:59:45;;;;;;;;;;;;;;;;;;342126;28;877;-53
2022/04/22 00:59:56;;;;;;;;;;;;;;;;;;341993;28;984;-53
2022/04/22 01:00:06;;;;;;;;;;;;;;;;;;342221;28;963;-49
2022/04/22 01:00:17;;;;;;;;;;;;;;;;;;342130;28;902;-53
2022/04/22 01:00:27;;;;;;;;;;;;;;;;;;341680;28;814;-54
2022/04/22 01:00:38;;;;;;;;;;;;;;;;;;342133;28;1740;-53
2022/04/22 01:00:49;;;;;;;;;;;;;;;;;;341871;28;893;-48
2022/04/22 01:00:59;;;;;;;;;;;;;;;;;;342237;28;799;-51
2022/04/22 01:01:11;;;;;;;;;;;;;;;;;;342110;28;890;-49
2022/04/22 01:01:22;;;;;;;;;;;;;;;;;;342057;28;987;-52
2022/04/22 01:01:34;;;;;;;;;;;;;;;;;;342158;28;945;-55
2022/04/22 01:01:44;;;;;;;;;;;;;;;;;;342129;28;968;-52
2022/04/22 01:01:55;;;;;;;;;;;;;;;;;;341841;28;1148;-56
2022/04/22 01:02:05;;;;;;;;;;;;;;;;;;342228;28;858;-53
2022/04/22 01:02:15;;;;;;;;;;;;;;;;;;341980;28;984;-51
2022/04/22 01:02:26;;;;;;;;;;;;;;;;;;341983;28;925;-56
2022/04/22 01:02:36;;;;;;;;;;;;;;;;;;342051;28;1004;-48
2022/04/22 01:02:47;;;;;;;;;;;;;;;;;;342067;28;899;-54
2022/04/22 01:02:57;;;;;;;;;;;;;;;;;;342183;28;811;-52
2022/04/22 01:03:08;;;;;;;;;;;;;;;;;;341999;28;1072;-56
2022/04/22 01:03:18;;;;;;;;;;;;;;;;;;342086;28;846;-54
2022/04/22 01:03:28;;;;;;;;;;;;;;;;;;341923;28;949;-55
2022/04/22 01:03:39;;;;;;;;;;;;;;;;;;342145;28;1058;-56
2022/04/22 01:09:48;;;;;;;;;;;;;;;;;;339261;29;1281;-55
2022/04/22 01:09:56;;;;;;;;;;;;;;;;;;340528;29;1071;-51
2022/04/22 01:09:58;;;;;;;;;;;;;;;;;;339197;29;1610;-48
2022/04/22 01:10:08;;;;;;;;;;;;;;;;;;340414;29;1009;-56
2022/04/22 01:10:19;;;;;;;;;;;;;;;;;;341247;28;1088;-55
2022/04/22 01:10:29;;;;;;;;;;;;;;;;;;341971;28;898;-56
2022/04/22 01:10:40;;;;;;;;;;;;;;;;;;343240;28;1123;-56
2022/04/22 01:10:51;;;;;;;;;;;;;;;;;;343411;28;917;-56
2022/04/22 01:11:01;;;;;;;;;;;;;;;;;;343467;28;956;-56
2022/04/22 01:11:11;;;;;;;;;;;;;;;;;;343224;28;1149;-56
2022/04/22 01:11:23;;;;;;;;;;;;;;;;;;343483;28;993;-55
2022/04/22 01:11:35;;;;;;;;;;;;;;;;;;343455;28;985;-56
2022/04/22 01:11:46;;;;;;;;;;;;;;;;;;343479;28;1040;-54
2022/04/22 01:11:56;;;;;;;;;;;;;;;;;;343259;28;1005;-53
2022/04/22 01:12:07;;;;;;;;;;;;;;;;;;343498;28;930;-51
2022/04/22 01:12:18;;;;;;;;;;;;;;;;;;343512;28;985;-55
2022/04/22 01:12:30;;;;;;;;;;;;;;;;;;343140;28;1088;-55
2022/04/22 01:12:40;;;;;;;;;;;;;;;;;;343515;28;759;-55
2022/04/22 01:12:51;;;;;;;;;;;;;;;;;;343462;28;859;-53
2022/04/22 01:13:02;;;;;;;;;;;;;;;;;;343372;28;1032;-49
2022/04/22 01:13:12;;;;;;;;;;;;;;;;;;343180;28;973;-56
2022/04/22 01:13:23;;;;;;;;;;;;;;;;;;343255;28;960;-57
2022/04/22 01:13:33;;;;;;;;;;;;;;;;;;343269;28;1133;-56
2022/04/22 01:13:44;;;;;;;;;;;;;;;;;;343335;28;842;-57
2022/04/22 01:13:55;;;;;;;;;;;;;;;;;;343224;28;1016;-57
2022/04/22 01:14:05;;;;;;;;;;;;;;;;;;343244;28;936;-55
2022/04/22 01:14:16;;;;;;;;;;;;;;;;;;343397;28;918;-57
2022/04/22 01:14:28;;;;;;;;;;;;;;;;;;343188;28;945;-56
2022/04/22 01:14:39;;;;;;;;;;;;;;;;;;343383;28;933;-57
2022/04/22 01:14:49;;;;;;;;;;;;;;;;;;343244;28;827;-54
2022/04/22 01:15:00;;;;;;;;;;;;;;;;;;343343;28;814;-57
2022/04/22 01:15:10;;;;;;;;;;;;;;;;;;343143;28;830;-52
2022/04/22 01:15:21;;;;;;;;;;;;;;;;;;343342;28;1284;-53
2022/04/22 01:15:31;;;;;;;;;;;;;;;;;;343204;28;834;-57
2022/04/22 01:15:42;;;;;;;;;;;;;;;;;;343483;28;834;-56
2022/04/22 01:15:53;;;;;;;;;;;;;;;;;;343299;28;1080;-55
2022/04/22 01:16:03;;;;;;;;;;;;;;;;;;343516;28;850;-57
2022/04/22 01:16:13;;;;;;;;;;;;;;;;;;343415;28;917;-54
2022/04/22 01:16:24;;;;;;;;;;;;;;;;;;343111;28;874;-56
2022/04/22 01:16:34;;;;;;;;;;;;;;;;;;343439;28;870;-56
2022/04/22 01:16:44;;;;;;;;;;;;;;;;;;343573;28;814;-55
2022/04/22 01:16:55;;;;;;;;;;;;;;;;;;343272;28;885;-55
2022/04/22 01:17:05;;;;;;;;;;;;;;;;;;343444;28;1004;-56
2022/04/22 01:17:16;;;;;;;;;;;;;;;;;;343429;28;1974;-57
2022/04/22 01:17:27;;;;;;;;;;;;;;;;;;343209;28;945;-55
2022/04/22 01:17:37;;;;;;;;;;;;;;;;;;343335;28;1069;-57
2022/04/22 01:17:48;;;;;;;;;;;;;;;;;;343349;28;886;-56
2022/04/22 01:17:58;;;;;;;;;;;;;;;;;;343205;28;1234;-56
2022/04/22 01:18:09;;;;;;;;;;;;;;;;;;343360;28;962;-49
2022/04/22 01:18:19;;;;;;;;;;;;;;;;;;343483;28;1001;-55
2022/04/22 01:18:30;;;;;;;;;;;;;;;;;;343271;28;869;-56
2022/04/22 01:18:41;;;;;;;;;;;;;;;;;;343564;28;925;-57
2022/04/22 01:18:51;;;;;;;;;;;;;;;;;;343173;28;1169;-56
2022/04/22 01:19:02;;;;;;;;;;;;;;;;;;343498;28;882;-57
2022/04/22 01:19:12;;;;;;;;;;;;;;;;;;343369;28;819;-50
2022/04/22 01:19:23;;;;;;;;;;;;;;;;;;343319;28;968;-52
2022/04/22 01:19:33;;;;;;;;;;;;;;;;;;343421;28;933;-57
2022/04/22 01:19:44;;;;;;;;;;;;;;;;;;343523;28;839;-54
2022/04/22 01:19:55;;;;;;;;;;;;;;;;;;343263;28;966;-53
2022/04/22 01:20:06;;;;;;;;;;;;;;;;;;343444;28;819;-57
2022/04/22 01:20:17;;;;;;;;;;;;;;;;;;343231;28;950;-57
2022/04/22 01:20:27;;;;;;;;;;;;;;;;;;343216;28;791;-54
2022/04/22 01:20:37;;;;;;;;;;;;;;;;;;343390;28;829;-57
2022/04/22 01:20:48;;;;;;;;;;;;;;;;;;343442;28;846;-54
2022/04/22 01:20:59;;;;;;;;;;;;;;;;;;343353;28;905;-56
2022/04/22 01:21:09;;;;;;;;;;;;;;;;;;343278;28;1088;-57
2022/04/22 01:21:20;;;;;;;;;;;;;;;;;;343473;28;956;-53
2022/04/22 01:21:30;;;;;;;;;;;;;;;;;;343302;28;949;-55
2022/04/22 01:21:40;;;;;;;;;;;;;;;;;;343405;28;1757;-57
2022/04/22 01:21:51;;;;;;;;;;;;;;;;;;343235;28;863;-58
2022/04/22 01:22:01;;;;;;;;;;;;;;;;;;343580;28;866;-57
2022/04/22 01:22:13;;;;;;;;;;;;;;;;;;343384;28;917;-57
2022/04/22 01:22:23;;;;;;;;;;;;;;;;;;343279;28;940;-56
2022/04/22 01:22:33;;;;;;;;;;;;;;;;;;343280;28;922;-53